Time;durP1;ratioP1;P1;durP2;ratioP2;P2;SDS_P1;SDS_P2;PMS_P1;PMS_P2;Temp;Humidity;BMP_temperature;BMP_pressure;BME280_temperature;BME280_humidity;BME280_pressure;Samples;Min_cycle;Max_cycle;Signal;HPM_P1;HPM_P2
2023/03/22 00:01:31;;;;;;;12.82;6.00;;;12.20;99.90;;;;;;5032225;28;20033;-71
2023/03/22 00:03:58;;;;;;;12.18;5.43;;;12.20;99.90;;;;;;5032792;28;20474;-70
2023/03/22 00:06:24;;;;;;;18.60;6.03;;;12.20;99.90;;;;;;5032783;28;20398;-70
2023/03/22 00:08:51;;;;;;;14.93;6.25;;;12.10;99.90;;;;;;5032101;28;20501;-71
2023/03/22 00:11:17;;;;;;;16.58;6.13;;;12.10;99.90;;;;;;5032734;28;20398;-70
2023/03/22 00:13:45;;;;;;;18.05;6.85;;;12.00;99.90;;;;;;5014361;28;20386;-71
2023/03/22 00:16:12;;;;;;;21.42;6.32;;;12.00;99.90;;;;;;5012085;28;20803;-71
2023/03/22 00:18:39;;;;;;;12.57;5.50;;;11.90;99.90;;;;;;5012429;28;20026;-71
2023/03/22 00:21:08;;;;;;;12.98;5.22;;;11.90;99.90;;;;;;5012922;28;20041;-71
2023/03/22 00:23:34;;;;;;;11.73;5.30;;;12.00;99.90;;;;;;5010692;28;20046;-70
2023/03/22 00:26:00;;;;;;;14.80;5.72;;;11.90;99.90;;;;;;5012411;28;20033;-70
2023/03/22 00:28:26;;;;;;;10.95;5.55;;;11.90;99.90;;;;;;5012528;28;20033;-71
2023/03/22 00:30:54;;;;;;;16.77;5.78;;;11.90;99.90;;;;;;5025095;28;20053;-71
2023/03/22 00:33:20;;;;;;;12.55;5.38;;;12.00;99.90;;;;;;5032071;28;20029;-70
2023/03/22 00:35:53;;;;;;;15.57;5.40;;;12.00;99.90;;;;;;5032557;28;20041;-71
2023/03/22 00:38:19;;;;;;;12.68;5.35;;;12.00;99.90;;;;;;5032068;28;20037;-70
2023/03/22 00:40:45;;;;;;;15.13;5.38;;;12.10;99.90;;;;;;5032078;28;20033;-71
2023/03/22 00:43:12;;;;;;;11.95;5.35;;;12.10;99.90;;;;;;5030796;28;20041;-69
2023/03/22 00:45:39;;;;;;;15.65;6.00;;;12.00;99.90;;;;;;5031950;28;20037;-70
2023/03/22 00:48:09;;;;;;;17.90;5.80;;;12.10;99.90;;;;;;5032261;28;20056;-71
2023/03/22 00:50:36;;;;;;;14.50;5.57;;;12.10;99.90;;;;;;5031989;28;20061;-70
2023/03/22 00:53:02;;;;;;;15.73;5.57;;;12.10;99.90;;;;;;5032000;28;20105;-71
2023/03/22 00:55:29;;;;;;;13.63;5.50;;;12.10;99.90;;;;;;5031805;28;20374;-71
2023/03/22 00:57:55;;;;;;;13.43;5.47;;;12.20;99.90;;;;;;5032220;28;20048;-70
2023/03/22 01:00:21;;;;;;;16.52;5.57;;;12.20;99.90;;;;;;5031573;28;20025;-71
2023/03/22 01:02:48;;;;;;;15.70;5.45;;;12.20;99.90;;;;;;5031945;28;20037;-71
2023/03/22 01:05:14;;;;;;;10.55;5.28;;;12.10;99.90;;;;;;5031641;28;20500;-70
2023/03/22 01:07:42;;;;;;;15.80;5.70;;;12.10;99.90;;;;;;5031982;28;20417;-71
2023/03/22 01:10:08;;;;;;;17.30;6.00;;;12.00;99.90;;;;;;5032365;28;20041;-71
2023/03/22 01:12:35;;;;;;;13.00;5.75;;;12.10;99.90;;;;;;5023110;28;20045;-71
2023/03/22 01:15:02;;;;;;;15.32;5.85;;;12.10;99.90;;;;;;5012427;28;20038;-71
2023/03/22 01:17:28;;;;;;;13.70;5.35;;;12.10;99.90;;;;;;5011320;28;20034;-71
2023/03/22 01:19:54;;;;;;;16.25;6.28;;;12.20;99.90;;;;;;5012718;28;20026;-70
2023/03/22 01:22:20;;;;;;;16.98;5.93;;;12.20;99.90;;;;;;5014232;28;20491;-71
2023/03/22 01:24:48;;;;;;;16.48;5.57;;;12.20;99.90;;;;;;5015641;28;20045;-70
2023/03/22 01:27:14;;;;;;;15.93;5.45;;;12.20;99.90;;;;;;5014501;28;20470;-70
2023/03/22 01:29:40;;;;;;;11.52;5.47;;;12.20;99.90;;;;;;5018718;28;20042;-71
2023/03/22 01:32:06;;;;;;;13.88;5.88;;;12.20;99.90;;;;;;5034853;28;20045;-70
2023/03/22 01:34:33;;;;;;;14.98;5.88;;;12.10;99.90;;;;;;5034983;28;20037;-71
2023/03/22 01:36:59;;;;;;;16.33;5.65;;;12.20;99.90;;;;;;5035223;28;20036;-71
2023/03/22 01:39:26;;;;;;;13.15;5.70;;;12.30;99.90;;;;;;5035161;28;20029;-71
2023/03/22 01:41:52;;;;;;;11.73;5.43;;;12.20;99.90;;;;;;5035036;28;20029;-69
2023/03/22 01:44:19;;;;;;;17.23;5.95;;;12.20;99.90;;;;;;5034934;28;20033;-71
2023/03/22 01:46:46;;;;;;;14.18;5.10;;;12.20;99.90;;;;;;5034764;28;20042;-70
2023/03/22 01:49:34;;;;;;;16.83;5.45;;;12.20;99.90;;;;;;5033622;28;20462;-70
2023/03/22 01:52:10;;;;;;;17.08;5.90;;;12.20;99.90;;;;;;5032882;28;20486;-71
2023/03/22 01:54:46;;;;;;;19.13;5.30;;;12.20;99.90;;;;;;5017424;28;20021;-70
2023/03/22 01:57:12;;;;;;;13.70;5.88;;;12.20;99.90;;;;;;5033780;28;20556;-69
2023/03/22 01:59:39;;;;;;;13.80;5.30;;;12.30;99.90;;;;;;5034735;28;20025;-71
2023/03/22 02:02:05;;;;;;;18.40;6.50;;;12.20;99.90;;;;;;5034002;28;20037;-71
2023/03/22 02:04:37;;;;;;;13.13;5.53;;;12.20;99.90;;;;;;5032958;28;20045;-71
2023/03/22 02:07:09;;;;;;;10.88;5.97;;;12.20;99.90;;;;;;5035063;28;20042;-71
2023/03/22 02:09:45;;;;;;;16.30;5.85;;;12.20;99.90;;;;;;5033348;28;20064;-70
2023/03/22 02:12:33;;;;;;;17.13;5.97;;;12.20;99.90;;;;;;5029145;28;20045;-71
2023/03/22 02:15:15;;;;;;;14.07;5.78;;;12.10;99.90;;;;;;5014978;28;20030;-70
2023/03/22 02:17:52;;;;;;;14.93;5.60;;;12.20;99.90;;;;;;5012425;28;20034;-70
2023/03/22 02:20:30;;;;;;;11.20;5.50;;;12.20;99.90;;;;;;5013495;28;20036;-71
2023/03/22 02:23:30;;;;;;;18.92;6.18;;;12.30;99.90;;;;;;5014231;28;20038;-71
2023/03/22 02:26:05;;;;;;;11.85;6.38;;;12.30;99.90;;;;;;5014362;28;20494;-70
2023/03/22 02:28:46;;;;;;;13.77;6.05;;;12.20;99.90;;;;;;5014458;28;20037;-71
2023/03/22 02:31:31;;;;;;;18.50;6.28;;;12.20;99.90;;;;;;5028632;28;20037;-70
2023/03/22 02:34:19;;;;;;;14.18;5.93;;;12.20;99.90;;;;;;5033808;28;20029;-70
2023/03/22 02:37:03;;;;;;;13.35;5.82;;;12.20;99.90;;;;;;5032762;28;20029;-71
2023/03/22 02:39:58;;;;;;;16.20;6.00;;;12.20;99.90;;;;;;5034089;28;20029;-71
2023/03/22 02:42:35;;;;;;;17.00;5.88;;;12.20;99.90;;;;;;5033471;28;20045;-70
2023/03/22 02:45:08;;;;;;;17.27;6.50;;;12.20;99.90;;;;;;5034056;28;20029;-70
2023/03/22 02:47:59;;;;;;;14.95;6.10;;;12.20;99.90;;;;;;5032765;28;20044;-70
2023/03/22 02:50:46;;;;;;;10.52;5.70;;;12.30;99.90;;;;;;5029083;28;20029;-70
2023/03/22 02:53:23;;;;;;;15.85;5.72;;;12.30;99.90;;;;;;5032753;28;20394;-71
2023/03/22 02:55:51;;;;;;;13.23;5.82;;;12.20;99.90;;;;;;5017495;28;20014;-71
2023/03/22 02:58:38;;;;;;;15.18;6.10;;;12.20;99.90;;;;;;5032133;28;20053;-70
2023/03/22 03:01:08;;;;;;;8.60;5.32;;;12.20;99.90;;;;;;5017754;28;20029;-70
2023/03/22 03:03:36;;;;;;;17.10;6.15;;;12.20;99.90;;;;;;5032431;28;20026;-70
2023/03/22 03:06:10;;;;;;;11.18;5.28;;;12.20;99.90;;;;;;5016170;28;20033;-71
2023/03/22 03:08:37;;;;;;;16.95;5.50;;;12.20;99.90;;;;;;5032344;28;20374;-70
2023/03/22 03:11:03;;;;;;;13.15;5.95;;;12.10;99.90;;;;;;5015795;28;20041;-70
2023/03/22 03:13:29;;;;;;;15.80;5.93;;;12.10;99.90;;;;;;5015862;28;20029;-70
2023/03/22 03:15:57;;;;;;;8.70;5.07;;;12.20;99.90;;;;;;5012821;28;20034;-70
2023/03/22 03:18:36;;;;;;;18.15;6.40;;;12.10;99.90;;;;;;5028599;28;20041;-71
2023/03/22 03:21:13;;;;;;;17.88;6.45;;;12.20;99.90;;;;;;5013873;28;20037;-70
2023/03/22 03:23:45;;;;;;;15.38;5.88;;;12.20;99.90;;;;;;5011732;28;20054;-70
2023/03/22 03:26:49;;;;;;;16.83;6.40;;;12.20;99.90;;;;;;5011847;28;20038;-70
2023/03/22 03:29:15;;;;;;;16.65;5.88;;;12.10;99.90;;;;;;5013340;28;20030;-70
2023/03/22 03:31:50;;;;;;;14.48;6.13;;;12.20;99.90;;;;;;4993030;28;20046;-70
2023/03/22 03:34:40;;;;;;;12.82;6.07;;;12.20;99.90;;;;;;4993613;28;20037;-70
2023/03/22 03:37:09;;;;;;;17.38;6.70;;;12.20;99.90;;;;;;4992640;28;20022;-71
2023/03/22 03:39:38;;;;;;;11.77;5.47;;;12.10;99.90;;;;;;5008909;28;20039;-70
2023/03/22 03:42:05;;;;;;;14.35;5.72;;;12.20;99.90;;;;;;5007989;28;20061;-70
2023/03/22 03:44:31;;;;;;;11.52;5.35;;;12.10;99.90;;;;;;4992040;28;20038;-70
2023/03/22 03:46:57;;;;;;;15.07;5.35;;;12.10;99.90;;;;;;4991801;28;20030;-71
2023/03/22 03:49:23;;;;;;;15.40;5.43;;;12.20;99.90;;;;;;5008779;28;20518;-71
2023/03/22 03:51:51;;;;;;;15.45;5.55;;;12.20;99.90;;;;;;4991294;28;20053;-70
2023/03/22 03:54:17;;;;;;;13.77;5.25;;;12.10;99.90;;;;;;5008509;28;20399;-70
2023/03/22 03:56:43;;;;;;;12.73;5.13;;;12.10;99.90;;;;;;4992187;28;20057;-71
2023/03/22 03:59:09;;;;;;;11.82;5.35;;;12.20;99.90;;;;;;4993084;28;20317;-70
2023/03/22 04:01:36;;;;;;;10.82;5.50;;;12.20;99.90;;;;;;4992610;28;20037;-70
2023/03/22 04:04:02;;;;;;;15.02;5.75;;;12.20;99.90;;;;;;4993318;28;20038;-70
2023/03/22 04:06:28;;;;;;;16.05;5.88;;;12.20;99.90;;;;;;4993255;28;20025;-70
2023/03/22 04:08:55;;;;;;;13.07;5.30;;;12.20;99.90;;;;;;4993360;28;20423;-70
2023/03/22 04:11:21;;;;;;;13.73;5.80;;;12.10;99.90;;;;;;4993296;28;20403;-71
2023/03/22 04:13:47;;;;;;;13.10;5.55;;;12.20;99.90;;;;;;5010932;28;20044;-70
2023/03/22 04:16:13;;;;;;;13.00;5.35;;;12.20;99.90;;;;;;5012034;28;20439;-71
2023/03/22 04:18:39;;;;;;;15.23;6.13;;;12.20;99.90;;;;;;5012736;28;20045;-71
2023/03/22 04:21:06;;;;;;;12.90;4.78;;;12.30;99.90;;;;;;5012638;28;20033;-71
2023/03/22 04:23:32;;;;;;;11.73;4.95;;;12.30;99.90;;;;;;5012231;28;20057;-70
2023/03/22 04:25:58;;;;;;;14.63;5.47;;;12.20;99.90;;;;;;5012481;28;20038;-70
2023/03/22 04:28:25;;;;;;;16.52;5.53;;;12.20;99.90;;;;;;5012122;28;20359;-70
2023/03/22 04:30:51;;;;;;;13.13;5.25;;;12.20;99.90;;;;;;5024714;28;20037;-71
2023/03/22 04:33:18;;;;;;;15.63;5.35;;;12.20;99.90;;;;;;5032208;28;20049;-70
2023/03/22 04:35:45;;;;;;;11.73;5.47;;;12.30;99.90;;;;;;5032128;28;20026;-71
2023/03/22 04:38:11;;;;;;;14.80;5.22;;;12.30;99.90;;;;;;5032463;28;20048;-70
2023/03/22 04:40:37;;;;;;;11.65;5.35;;;12.30;99.90;;;;;;5032101;28;20029;-71
2023/03/22 04:43:04;;;;;;;14.25;5.28;;;12.30;99.90;;;;;;5031802;28;20036;-70
2023/03/22 04:45:31;;;;;;;14.23;5.28;;;12.30;99.90;;;;;;5031691;28;20030;-71
2023/03/22 04:47:57;;;;;;;12.27;5.18;;;12.30;99.90;;;;;;5030971;28;20042;-70
2023/03/22 04:50:27;;;;;;;11.23;4.88;;;12.30;99.90;;;;;;5032082;28;20037;-71
2023/03/22 04:52:53;;;;;;;12.82;5.05;;;12.20;99.90;;;;;;5032285;28;20050;-71
2023/03/22 04:55:19;;;;;;;14.60;5.28;;;12.30;99.90;;;;;;5033880;28;20037;-70
2023/03/22 04:57:45;;;;;;;10.70;4.80;;;12.30;99.90;;;;;;5035562;28;20409;-71
2023/03/22 05:00:12;;;;;;;12.00;5.28;;;12.30;99.90;;;;;;5035565;28;20025;-70
2023/03/22 05:02:39;;;;;;;9.15;4.78;;;12.20;99.90;;;;;;5035695;28;20367;-70
2023/03/22 05:05:06;;;;;;;11.88;4.95;;;12.20;99.90;;;;;;5036077;28;20405;-71
2023/03/22 05:07:32;;;;;;;16.60;5.32;;;12.30;99.90;;;;;;5035885;28;20045;-70
2023/03/22 05:09:58;;;;;;;17.35;5.68;;;12.20;99.90;;;;;;5035603;28;20025;-70
2023/03/22 05:12:24;;;;;;;16.83;4.97;;;12.30;99.90;;;;;;5027901;28;20034;-71
2023/03/22 05:14:50;;;;;;;13.25;5.15;;;12.30;99.90;;;;;;5016325;28;20478;-70
2023/03/22 05:17:16;;;;;;;12.93;5.28;;;12.30;99.90;;;;;;5015391;28;20029;-70
2023/03/22 05:19:42;;;;;;;17.85;5.15;;;12.30;99.90;;;;;;5015769;28;20038;-71
2023/03/22 05:22:10;;;;;;;12.25;5.25;;;12.30;99.90;;;;;;5015925;28;20403;-70
2023/03/22 05:24:36;;;;;;;15.52;5.20;;;12.30;99.90;;;;;;5015421;28;20521;-70
2023/03/22 05:27:03;;;;;;;9.88;4.57;;;12.30;99.90;;;;;;5015241;28;20030;-71
2023/03/22 05:29:35;;;;;;;13.63;4.65;;;12.30;99.90;;;;;;5017101;28;20034;-70
2023/03/22 05:32:02;;;;;;;13.18;5.20;;;12.30;99.90;;;;;;5034919;28;20069;-71
2023/03/22 05:34:34;;;;;;;15.25;5.13;;;12.30;99.90;;;;;;5035368;28;20033;-70
2023/03/22 05:37:01;;;;;;;10.73;4.80;;;12.30;99.90;;;;;;5035358;28;20386;-71
2023/03/22 05:39:27;;;;;;;12.18;4.70;;;12.30;99.90;;;;;;5035378;28;20386;-70
2023/03/22 05:41:53;;;;;;;18.00;4.60;;;12.30;99.90;;;;;;5034731;28;20037;-70
2023/03/22 05:44:19;;;;;;;16.10;4.85;;;12.20;99.90;;;;;;5035080;28;20386;-71
2023/03/22 05:46:45;;;;;;;15.15;5.03;;;12.30;99.90;;;;;;5035102;28;20112;-71
2023/03/22 05:49:11;;;;;;;15.02;5.13;;;12.30;99.90;;;;;;5035117;28;20025;-71
2023/03/22 05:51:40;;;;;;;22.05;5.35;;;12.30;99.90;;;;;;5034806;28;20462;-71
2023/03/22 05:54:09;;;;;;;10.75;4.55;;;12.30;99.90;;;;;;5035196;28;20044;-70
2023/03/22 05:56:35;;;;;;;18.55;5.13;;;12.30;99.90;;;;;;5034843;28;20040;-70
2023/03/22 05:59:03;;;;;;;16.50;5.03;;;12.30;99.90;;;;;;5035214;28;20044;-71
2023/03/22 06:01:29;;;;;;;15.48;4.97;;;12.30;99.90;;;;;;5033167;28;20030;-71
2023/03/22 06:03:55;;;;;;;14.98;4.93;;;12.30;99.90;;;;;;5034569;28;20029;-71
2023/03/22 06:06:21;;;;;;;14.57;5.53;;;12.40;99.90;;;;;;5034100;28;20028;-70
2023/03/22 06:08:47;;;;;;;11.68;5.53;;;12.30;99.90;;;;;;5034486;28;20041;-70
2023/03/22 06:11:13;;;;;;;10.35;5.05;;;12.30;99.90;;;;;;5034310;28;20029;-69
2023/03/22 06:13:39;;;;;;;12.68;5.15;;;12.30;99.90;;;;;;5017032;28;20034;-71
2023/03/22 06:16:05;;;;;;;14.00;4.85;;;12.40;99.90;;;;;;5014073;28;20030;-71
2023/03/22 06:18:32;;;;;;;11.50;5.30;;;12.40;99.90;;;;;;5014737;28;20490;-71
2023/03/22 06:20:58;;;;;;;12.45;5.70;;;12.40;99.90;;;;;;5014583;28;20038;-71
2023/03/22 06:23:24;;;;;;;14.45;5.03;;;12.40;99.90;;;;;;5014211;28;20050;-71
2023/03/22 06:25:50;;;;;;;13.43;5.45;;;12.40;99.90;;;;;;5014066;28;20041;-71
2023/03/22 06:28:16;;;;;;;14.25;5.72;;;12.50;99.90;;;;;;5014585;28;20455;-71
2023/03/22 06:30:42;;;;;;;15.15;5.35;;;12.50;99.90;;;;;;5025471;28;20033;-71
2023/03/22 06:33:08;;;;;;;14.13;5.38;;;12.50;99.90;;;;;;5034240;28;20410;-71
2023/03/22 06:35:34;;;;;;;23.13;6.28;;;12.50;99.90;;;;;;5033962;28;20037;-71
2023/03/22 06:38:01;;;;;;;13.63;5.53;;;12.40;99.90;;;;;;5032827;28;20396;-71
2023/03/22 06:40:27;;;;;;;10.88;5.50;;;12.40;99.90;;;;;;5033883;28;20029;-71
2023/03/22 06:42:53;;;;;;;12.00;5.85;;;12.40;99.90;;;;;;5034255;28;20045;-71
2023/03/22 06:45:20;;;;;;;18.55;6.43;;;12.40;99.90;;;;;;5033571;28;20040;-71
2023/03/22 06:47:47;;;;;;;16.58;6.65;;;12.40;99.90;;;;;;5033887;28;20377;-71
2023/03/22 06:50:14;;;;;;;11.75;6.38;;;12.40;99.90;;;;;;5033970;28;20041;-71
2023/03/22 06:52:40;;;;;;;12.57;6.35;;;12.40;99.90;;;;;;5032610;28;20093;-70
2023/03/22 06:55:07;;;;;;;14.57;6.20;;;12.40;99.90;;;;;;5033410;28;20033;-71
2023/03/22 06:57:33;;;;;;;13.70;6.38;;;12.40;99.90;;;;;;5033775;28;20048;-71
2023/03/22 06:59:59;;;;;;;15.85;7.07;;;12.40;99.90;;;;;;5034048;28;20042;-71
2023/03/22 07:02:25;;;;;;;17.33;6.18;;;12.50;99.90;;;;;;5033166;28;20398;-71
2023/03/22 07:04:51;;;;;;;12.77;6.05;;;12.40;99.90;;;;;;5033497;28;20044;-71
2023/03/22 07:07:17;;;;;;;13.60;6.30;;;12.40;99.90;;;;;;5032445;28;20021;-71
2023/03/22 07:09:43;;;;;;;16.48;6.32;;;12.50;99.90;;;;;;5033091;28;20025;-71
2023/03/22 07:12:09;;;;;;;14.48;6.40;;;12.50;99.90;;;;;;5028138;28;20026;-71
2023/03/22 07:14:36;;;;;;;12.20;5.97;;;12.50;99.90;;;;;;5013500;28;20049;-70
2023/03/22 07:17:02;;;;;;;15.85;6.18;;;12.50;99.90;;;;;;5012535;28;20030;-71
2023/03/22 07:19:28;;;;;;;13.57;5.63;;;12.50;99.90;;;;;;5012960;28;20507;-71
2023/03/22 07:21:54;;;;;;;13.00;5.50;;;12.50;99.90;;;;;;5012947;28;20041;-70
2023/03/22 07:24:20;;;;;;;14.20;6.32;;;12.50;99.90;;;;;;5013229;28;20033;-71
2023/03/22 07:26:46;;;;;;;18.98;6.10;;;12.50;99.90;;;;;;5013418;28;20037;-71
2023/03/22 07:29:12;;;;;;;13.82;5.75;;;12.50;99.90;;;;;;5013487;28;20033;-71
2023/03/22 07:31:38;;;;;;;13.23;6.28;;;12.60;99.90;;;;;;5031986;28;20041;-71
2023/03/22 07:34:05;;;;;;;15.23;6.03;;;12.60;99.90;;;;;;5032810;28;20041;-71
2023/03/22 07:36:31;;;;;;;15.07;5.88;;;12.60;99.90;;;;;;5032634;28;20033;-71
2023/03/22 07:38:57;;;;;;;13.88;6.10;;;12.70;99.90;;;;;;5032797;28;20033;-71
2023/03/22 07:41:24;;;;;;;12.68;6.00;;;12.70;99.90;;;;;;5032836;28;20478;-70
2023/03/22 07:43:50;;;;;;;14.13;5.47;;;12.70;99.90;;;;;;5033374;28;20394;-71
2023/03/22 07:46:16;;;;;;;14.00;6.47;;;12.70;99.90;;;;;;5032421;28;20406;-71
2023/03/22 07:48:42;;;;;;;12.50;7.03;;;12.70;99.90;;;;;;5032626;28;20041;-71
2023/03/22 07:51:09;;;;;;;11.35;7.35;;;12.70;99.90;;;;;;5032653;28;20410;-71
2023/03/22 07:53:35;;;;;;;15.68;6.95;;;12.80;99.90;;;;;;5032628;28;20395;-71
2023/03/22 07:56:03;;;;;;;16.42;7.28;;;12.80;99.90;;;;;;5032563;28;20041;-71
2023/03/22 07:58:29;;;;;;;15.65;6.55;;;12.80;99.90;;;;;;5031385;28;20036;-71
2023/03/22 08:00:55;;;;;;;15.13;7.18;;;12.80;99.90;;;;;;5032513;28;20446;-71
2023/03/22 08:03:22;;;;;;;11.43;6.97;;;12.90;99.90;;;;;;5032744;28;20029;-71
2023/03/22 08:05:48;;;;;;;14.02;7.60;;;12.90;99.90;;;;;;5032276;28;20037;-71
2023/03/22 08:08:14;;;;;;;16.75;7.30;;;13.00;99.90;;;;;;5032843;28;20041;-71
2023/03/22 08:10:40;;;;;;;14.18;7.15;;;13.00;99.90;;;;;;5032660;28;20049;-71
2023/03/22 08:13:06;;;;;;;17.35;8.10;;;13.00;99.90;;;;;;5019294;28;20383;-71
2023/03/22 08:15:32;;;;;;;15.98;6.80;;;13.10;99.90;;;;;;5012572;28;20037;-71
2023/03/22 08:17:59;;;;;;;13.40;6.15;;;13.10;99.90;;;;;;5012688;28;20034;-71
2023/03/22 08:20:26;;;;;;;16.15;5.50;;;13.20;99.90;;;;;;5012662;28;20497;-71
2023/03/22 08:22:53;;;;;;;15.00;6.07;;;13.20;99.90;;;;;;5011973;28;20042;-71
2023/03/22 08:25:19;;;;;;;15.82;6.43;;;13.20;99.90;;;;;;5012824;28;20048;-71
2023/03/22 08:27:46;;;;;;;16.75;6.32;;;13.30;99.90;;;;;;5012585;28;20025;-71
2023/03/22 08:30:12;;;;;;;12.65;5.43;;;13.30;99.90;;;;;;5025123;28;20041;-71
2023/03/22 08:32:39;;;;;;;18.85;5.88;;;13.30;99.90;;;;;;5038929;28;20402;-71
2023/03/22 08:35:05;;;;;;;11.73;5.40;;;13.30;99.90;;;;;;5039037;28;20390;-71
2023/03/22 08:37:31;;;;;;;17.27;4.95;;;13.40;99.90;;;;;;5039002;28;20044;-71
2023/03/22 08:39:57;;;;;;;10.40;5.18;;;13.40;99.90;;;;;;5038816;28;20039;-70
2023/03/22 08:42:24;;;;;;;9.18;5.07;;;13.40;99.90;;;;;;5038769;28;20029;-71
2023/03/22 08:44:51;;;;;;;14.63;5.05;;;13.40;99.90;;;;;;5038682;28;20041;-71
2023/03/22 08:47:17;;;;;;;12.80;4.93;;;13.40;99.90;;;;;;5038283;28;20033;-71
2023/03/22 08:49:43;;;;;;;13.88;4.82;;;13.30;99.90;;;;;;5038284;28;20037;-71
2023/03/22 08:52:10;;;;;;;13.65;5.32;;;13.30;99.90;;;;;;5038785;28;20493;-71
2023/03/22 08:54:37;;;;;;;13.90;5.32;;;13.40;99.90;;;;;;5038904;28;20080;-71
2023/03/22 08:57:03;;;;;;;20.73;5.25;;;13.40;99.90;;;;;;5039071;28;20045;-71
2023/03/22 08:59:29;;;;;;;14.57;5.20;;;13.30;99.90;;;;;;5038644;28;20041;-71
2023/03/22 09:01:56;;;;;;;15.07;5.25;;;13.30;99.90;;;;;;5038440;28;20038;-70
2023/03/22 09:04:22;;;;;;;13.80;5.00;;;13.30;99.90;;;;;;5038445;28;20033;-71
2023/03/22 09:06:48;;;;;;;18.23;5.28;;;13.30;99.90;;;;;;5038479;28;20030;-71
2023/03/22 09:09:14;;;;;;;11.60;4.95;;;13.40;99.90;;;;;;5038432;28;20040;-70
2023/03/22 09:11:41;;;;;;;18.08;5.65;;;13.40;99.90;;;;;;5037335;28;20044;-71
2023/03/22 09:14:08;;;;;;;13.90;5.47;;;13.50;99.90;;;;;;5018444;28;20056;-71
2023/03/22 09:16:34;;;;;;;12.32;5.07;;;13.50;99.90;;;;;;5018361;28;20041;-70
2023/03/22 09:19:01;;;;;;;11.07;4.68;;;13.50;99.90;;;;;;5018324;28;20033;-70
2023/03/22 09:21:28;;;;;;;8.00;4.22;;;13.60;99.90;;;;;;5016584;28;20038;-71
2023/03/22 09:23:55;;;;;;;12.40;4.80;;;13.60;99.90;;;;;;5018496;28;20415;-70
2023/03/22 09:26:22;;;;;;;14.55;5.28;;;13.70;99.90;;;;;;5018521;28;20403;-71
2023/03/22 09:28:49;;;;;;;12.35;5.22;;;13.80;99.90;;;;;;5018563;28;20041;-71
2023/03/22 09:31:15;;;;;;;11.93;4.65;;;13.90;99.90;;;;;;5034172;28;20413;-70
2023/03/22 09:33:41;;;;;;;11.95;4.45;;;13.90;99.90;;;;;;5037844;28;20438;-71
2023/03/22 09:36:08;;;;;;;13.27;5.10;;;14.00;99.90;;;;;;5038411;28;20479;-71
2023/03/22 09:38:35;;;;;;;10.73;5.57;;;14.10;99.90;;;;;;5037048;28;20049;-71
2023/03/22 09:41:23;;;;;;;10.93;5.50;;;14.20;99.90;;;;;;5035918;28;20470;-70
2023/03/22 09:43:50;;;;;;;9.73;5.60;;;14.20;99.90;;;;;;5035501;28;20029;-71
2023/03/22 09:46:22;;;;;;;10.02;5.57;;;14.20;99.90;;;;;;5034583;28;20037;-70
2023/03/22 09:48:49;;;;;;;14.98;6.50;;;14.20;99.90;;;;;;5033559;28;20021;-70
2023/03/22 09:51:41;;;;;;;12.82;5.50;;;14.30;99.90;;;;;;5034035;28;20065;-71
2023/03/22 09:54:18;;;;;;;12.00;5.57;;;14.30;99.90;;;;;;5034828;28;20045;-71
2023/03/22 09:56:50;;;;;;;11.52;5.00;;;14.40;99.90;;;;;;5017273;28;20064;-71
2023/03/22 09:59:39;;;;;;;6.07;4.63;;;14.40;99.90;;;;;;5017910;28;20374;-71
2023/03/22 10:02:18;;;;;;;10.88;4.97;;;14.50;99.90;;;;;;5033854;28;20026;-71
2023/03/22 10:04:56;;;;;;;8.85;5.05;;;14.50;99.90;;;;;;5033680;28;20030;-70
2023/03/22 10:07:32;;;;;;;9.68;5.25;;;14.60;99.90;;;;;;5034716;28;20037;-70
2023/03/22 10:10:18;;;;;;;9.10;5.05;;;14.70;99.90;;;;;;5018023;28;20048;-71
2023/03/22 10:12:59;;;;;;;8.60;3.95;;;14.80;99.90;;;;;;5024836;28;20049;-71
2023/03/22 10:15:37;;;;;;;11.23;5.03;;;14.80;99.90;;;;;;5014214;28;20387;-70
2023/03/22 10:18:10;;;;;;;12.07;5.03;;;14.80;99.90;;;;;;5013134;28;20180;-71
2023/03/22 10:20:50;;;;;;;11.23;5.38;;;14.80;99.90;;;;;;5030933;28;20041;-70
2023/03/22 10:23:26;;;;;;;9.85;4.22;;;15.00;99.90;;;;;;4996955;28;20045;-71
2023/03/22 10:25:52;;;;;;;10.32;4.40;;;15.00;99.90;;;;;;5014715;28;20025;-71
2023/03/22 10:28:31;;;;;;;8.80;4.20;;;15.00;99.90;;;;;;4996585;28;20038;-71
2023/03/22 10:30:57;;;;;;;8.95;4.97;;;15.10;99.90;;;;;;5025996;28;20385;-71
2023/03/22 10:33:48;;;;;;;10.65;4.93;;;15.00;99.90;;;;;;5034055;28;20034;-71
2023/03/22 10:36:15;;;;;;;9.93;5.00;;;15.00;99.90;;;;;;5034374;28;20037;-71
2023/03/22 10:38:47;;;;;;;8.02;4.93;;;15.00;99.90;;;;;;5033013;28;20021;-71
2023/03/22 10:41:17;;;;;;;10.27;5.18;;;15.00;99.90;;;;;;5032604;28;20509;-70
2023/03/22 10:43:43;;;;;;;7.70;4.60;;;15.00;99.90;;;;;;5033094;28;20025;-71
2023/03/22 10:46:17;;;;;;;9.02;5.93;;;15.00;99.90;;;;;;5031985;28;20615;-71
2023/03/22 10:48:44;;;;;;;8.45;6.28;;;15.00;99.90;;;;;;5016960;28;20018;-71
2023/03/22 10:51:15;;;;;;;6.95;5.25;;;15.00;99.90;;;;;;5016118;28;20029;-71
2023/03/22 10:53:44;;;;;;;7.30;5.00;;;15.00;99.90;;;;;;5015925;28;20395;-71
2023/03/22 10:56:14;;;;;;;7.80;4.60;;;15.00;99.90;;;;;;5016242;28;20467;-71
2023/03/22 10:58:40;;;;;;;8.50;4.75;;;15.10;99.90;;;;;;5033808;28;20033;-71
2023/03/22 11:01:09;;;;;;;9.10;4.70;;;15.10;99.90;;;;;;5032771;28;20030;-71
2023/03/22 11:03:36;;;;;;;15.27;5.15;;;15.20;99.90;;;;;;5032525;28;20033;-71
2023/03/22 11:06:06;;;;;;;9.52;4.53;;;15.20;99.90;;;;;;5034006;28;20040;-70
2023/03/22 11:08:52;;;;;;;7.30;4.78;;;15.20;99.90;;;;;;5033478;28;20036;-71
2023/03/22 11:11:22;;;;;;;5.97;3.97;;;15.30;99.90;;;;;;5033328;28;20029;-70
2023/03/22 11:14:10;;;;;;;9.13;4.50;;;15.20;99.90;;;;;;5015272;28;20042;-71
2023/03/22 11:16:46;;;;;;;10.05;5.53;;;15.20;99.90;;;;;;5013114;28;20026;-70
2023/03/22 11:19:22;;;;;;;6.28;5.65;;;15.30;99.90;;;;;;5013817;28;20475;-71
2023/03/22 11:21:48;;;;;;;9.45;6.63;;;15.30;99.90;;;;;;5029211;28;20038;-71
2023/03/22 11:24:14;;;;;;;9.95;6.20;;;15.30;99.90;;;;;;5028533;28;20041;-71
2023/03/22 11:26:40;;;;;;;6.07;5.45;;;15.40;99.90;;;;;;5011746;28;20467;-70
2023/03/22 11:29:17;;;;;;;7.22;5.43;;;15.40;99.90;;;;;;5012007;28;20030;-71
2023/03/22 11:31:53;;;;;;;4.68;4.00;;;15.50;99.90;;;;;;4992350;28;20038;-71
2023/03/22 11:34:20;;;;;;;8.93;4.22;;;15.50;99.90;;;;;;4993623;28;20042;-71
2023/03/22 11:36:53;;;;;;;5.43;3.50;;;15.50;99.90;;;;;;4993692;28;20042;-71
2023/03/22 11:39:21;;;;;;;6.50;4.00;;;15.50;99.90;;;;;;4993879;28;20042;-71
2023/03/22 11:41:47;;;;;;;6.60;3.80;;;15.50;99.90;;;;;;4993594;28;20046;-71
2023/03/22 11:44:15;;;;;;;3.90;3.45;;;15.60;99.90;;;;;;4992146;28;20042;-71
2023/03/22 11:46:53;;;;;;;5.68;4.10;;;15.60;99.90;;;;;;4991857;28;20038;-71
2023/03/22 11:49:19;;;;;;;5.80;4.43;;;15.70;99.90;;;;;;4993547;28;20526;-70
2023/03/22 11:51:45;;;;;;;7.70;3.70;;;15.70;99.90;;;;;;4993284;28;20037;-71
2023/03/22 11:54:30;;;;;;;4.78;3.60;;;15.70;99.90;;;;;;4993289;28;20046;-71
2023/03/22 11:56:57;;;;;;;4.93;3.70;;;15.70;99.90;;;;;;4992860;28;20499;-71
2023/03/22 11:59:26;;;;;;;3.95;3.45;;;15.80;99.90;;;;;;5008157;28;20059;-71
2023/03/22 12:02:13;;;;;;;5.15;3.45;;;15.80;99.90;;;;;;4992813;28;20487;-71
2023/03/22 12:04:39;;;;;;;6.20;3.80;;;15.80;99.90;;;;;;4993219;28;20039;-70
2023/03/22 12:07:12;;;;;;;4.43;3.22;;;15.80;99.90;;;;;;5008638;28;20030;-71
2023/03/22 12:09:41;;;;;;;4.07;3.72;;;15.80;99.90;;;;;;5008292;28;20057;-71
2023/03/22 12:12:19;;;;;;;5.63;4.05;;;15.80;99.90;;;;;;4996180;28;20025;-71
2023/03/22 12:14:56;;;;;;;5.25;4.20;;;15.80;99.90;;;;;;5011368;28;20042;-70
2023/03/22 12:17:36;;;;;;;5.70;3.58;;;15.70;99.90;;;;;;5028009;28;20037;-71
2023/03/22 12:20:43;;;;;;;6.18;3.72;;;15.70;99.90;;;;;;5010896;28;20390;-71
2023/03/22 12:23:30;;;;;;;5.18;3.65;;;15.80;99.90;;;;;;5009328;28;20038;-71
2023/03/22 12:26:01;;;;;;;5.22;3.60;;;15.70;99.90;;;;;;5012638;28;20038;-70
2023/03/22 12:28:41;;;;;;;7.47;4.85;;;15.80;99.90;;;;;;5011010;28;20033;-71
2023/03/22 12:31:16;;;;;;;4.65;4.18;;;15.80;99.90;;;;;;5025901;28;20037;-71
2023/03/22 12:33:46;;;;;;;5.07;3.78;;;15.90;99.90;;;;;;5030836;28;20053;-71
2023/03/22 12:36:16;;;;;;;4.77;3.67;;;15.90;99.90;;;;;;5031139;28;20048;-71
2023/03/22 12:38:53;;;;;;;4.63;3.58;;;15.90;99.90;;;;;;5014967;28;20025;-70
2023/03/22 12:41:31;;;;;;;5.78;4.50;;;15.90;99.90;;;;;;5014343;28;20025;-71
2023/03/22 12:44:00;;;;;;;6.97;3.88;;;16.00;99.90;;;;;;5015206;28;20056;-70
2023/03/22 12:46:35;;;;;;;4.28;3.88;;;16.00;99.90;;;;;;5031616;28;20041;-71
2023/03/22 12:49:11;;;;;;;7.07;4.13;;;16.00;99.90;;;;;;5015008;28;20478;-71
2023/03/22 12:51:37;;;;;;;6.47;3.90;;;16.00;99.90;;;;;;5030641;28;20045;-71